createdAt,value
2023-04-05T16:38:48.929Z,2.40
2023-04-05T16:41:15.629Z,2.70
2023-04-05T16:43:42.279Z,2.95
2023-04-05T16:46:09.061Z,2.40
2023-04-05T16:48:36.252Z,2.55
2023-04-05T16:51:04.143Z,2.40
2023-04-05T16:53:31.621Z,2.40
2023-04-05T16:55:58.318Z,2.80
2023-04-05T16:58:24.868Z,2.72
2023-04-05T17:00:55.628Z,3.00
2023-04-05T17:03:22.459Z,2.92
2023-04-05T17:05:49.135Z,2.40
2023-04-05T17:08:15.786Z,2.80
2023-04-05T17:10:42.408Z,2.60
2023-04-05T17:13:09.219Z,2.80
2023-04-05T17:15:35.837Z,2.55
2023-04-05T17:18:02.567Z,3.10
2023-04-05T17:20:29.224Z,2.58
2023-04-05T17:22:58.298Z,2.55
2023-04-05T17:25:24.906Z,2.60
2023-04-05T17:27:51.519Z,3.15
2023-04-05T17:30:18.184Z,2.85
2023-04-05T17:32:44.799Z,2.55
2023-04-05T17:35:11.407Z,2.30
2023-04-05T17:37:38.022Z,3.17
2023-04-05T17:40:05.187Z,3.28
2023-04-05T17:42:32.228Z,3.05
2023-04-05T17:44:58.813Z,3.10
2023-04-05T17:47:25.550Z,2.67
2023-04-05T17:49:52.201Z,3.08
2023-04-05T17:52:18.776Z,3.67
2023-04-05T17:54:45.404Z,3.20
2023-04-05T17:57:15.297Z,4.50
2023-04-05T17:59:42.618Z,3.70
2023-04-05T18:02:13.071Z,3.22
2023-04-05T18:04:40.356Z,3.20
2023-04-05T18:07:07.655Z,3.17
2023-04-05T18:09:35.415Z,2.85
2023-04-05T18:12:02.545Z,3.22
2023-04-05T18:14:30.332Z,4.10
2023-04-05T18:16:56.968Z,3.63
2023-04-05T18:19:23.543Z,4.32
2023-04-05T18:21:50.163Z,4.53
2023-04-05T18:24:17.451Z,4.40
2023-04-05T18:26:44.089Z,3.80
2023-04-05T18:29:10.704Z,3.28
2023-04-05T18:31:37.440Z,3.60
2023-04-05T18:34:06.831Z,3.58
2023-04-05T18:36:33.520Z,3.90
2023-04-05T18:39:03.545Z,4.30
2023-04-05T18:41:30.268Z,3.95
2023-04-05T18:43:59.180Z,3.55
2023-04-05T18:46:26.269Z,3.40
2023-04-05T18:48:54.782Z,3.45
2023-04-05T18:53:49.095Z,3.55
2023-04-05T18:56:16.395Z,3.38
2023-04-05T18:58:44.664Z,3.72
2023-04-05T19:01:14.415Z,3.70
2023-04-05T19:03:41.569Z,3.47
2023-04-05T19:06:08.303Z,3.90
2023-04-05T19:08:34.887Z,2.95
2023-04-05T19:11:01.501Z,3.42
2023-04-05T19:13:28.081Z,2.90
2023-04-05T19:15:54.743Z,3.00
2023-04-05T19:18:25.675Z,3.40
2023-04-05T19:20:59.744Z,3.35
2023-04-05T19:23:27.820Z,4.00
2023-04-05T19:25:54.963Z,4.35
2023-04-05T19:28:21.592Z,3.83
2023-04-05T19:30:48.185Z,3.67
2023-04-05T19:33:14.799Z,2.72
2023-04-05T19:35:41.634Z,2.70
2023-04-05T19:38:08.777Z,2.70
2023-04-05T19:40:37.598Z,2.90
2023-04-05T19:43:04.472Z,3.13
2023-04-05T19:45:32.548Z,2.63
2023-04-05T19:48:01.429Z,3.20
2023-04-05T19:50:50.787Z,3.05
2023-04-05T19:53:38.948Z,2.85
2023-04-05T19:56:12.392Z,2.65
2023-04-05T19:58:39.292Z,3.30
2023-04-05T20:01:07.306Z,2.95
2023-04-05T20:03:35.205Z,2.90
2023-04-05T20:06:09.742Z,3.35
2023-04-05T20:08:44.848Z,3.13
2023-04-05T20:11:16.617Z,2.88
2023-04-05T20:13:51.959Z,2.90
2023-04-05T20:16:26.486Z,3.45
2023-04-05T20:18:54.323Z,3.08
2023-04-05T20:21:20.975Z,3.13
2023-04-05T20:23:47.687Z,2.88
2023-04-05T20:26:17.601Z,3.47
2023-04-05T20:28:54.053Z,2.72
2023-04-05T20:31:34.543Z,3.50
2023-04-05T20:34:13.328Z,3.05
2023-04-05T20:36:58.045Z,3.17
2023-04-05T20:39:25.410Z,3.40
2023-04-05T20:41:52.120Z,3.03
2023-04-05T20:44:18.905Z,3.63
2023-04-05T20:46:45.578Z,3.22
2023-04-05T20:49:12.289Z,2.92
2023-04-05T20:51:41.941Z,3.50
2023-04-05T20:54:09.416Z,3.50
2023-04-05T20:56:36.040Z,3.63
2023-04-05T20:59:02.696Z,3.50
